createdAt,value
2018-07-08T00:00:30.894Z,18.50
2018-07-08T00:02:59.217Z,18.60
2018-07-08T00:07:55.976Z,18.60
2018-07-08T00:10:24.322Z,18.60
2018-07-08T00:12:52.686Z,18.60
2018-07-08T00:15:20.983Z,18.60
2018-07-08T00:17:49.345Z,18.50
2018-07-08T00:20:17.754Z,18.50
2018-07-08T00:22:46.135Z,18.40
2018-07-08T00:25:14.430Z,18.40
2018-07-08T00:27:42.768Z,18.30
2018-07-08T00:30:11.106Z,18.30
2018-07-08T00:32:39.410Z,18.30
2018-07-08T00:35:07.768Z,18.30
2018-07-08T00:37:36.186Z,18.20
2018-07-08T00:40:05.162Z,18.10
2018-07-08T00:42:33.524Z,18.10
2018-07-08T00:45:01.823Z,18.10
2018-07-08T00:47:30.174Z,18.10
2018-07-08T00:49:58.510Z,18.10
2018-07-08T00:52:26.842Z,18.00
2018-07-08T00:54:55.190Z,18.00
2018-07-08T00:57:23.633Z,18.00
2018-07-08T00:59:51.973Z,17.90
2018-07-08T01:02:20.328Z,17.90
2018-07-08T01:07:16.750Z,17.80
2018-07-08T01:09:45.074Z,17.80
2018-07-08T01:12:13.724Z,17.80
2018-07-08T01:14:42.779Z,17.70
2018-07-08T01:17:11.089Z,17.70
2018-07-08T01:19:39.478Z,17.70
2018-07-08T01:22:07.806Z,17.70
2018-07-08T01:24:36.142Z,17.60
2018-07-08T01:27:04.597Z,17.70
2018-07-08T01:29:32.979Z,17.60
2018-07-08T01:32:01.308Z,17.60
2018-07-08T01:34:29.652Z,17.50
2018-07-08T01:36:58.032Z,17.50
2018-07-08T01:39:26.415Z,17.50
2018-07-08T01:41:55.145Z,17.50
2018-07-08T01:44:23.565Z,17.50
2018-07-08T01:46:51.842Z,17.40
2018-07-08T01:49:20.171Z,17.40
2018-07-08T01:51:48.482Z,17.40
2018-07-08T01:54:16.804Z,17.40
2018-07-08T01:59:13.431Z,17.40
2018-07-08T02:01:41.716Z,17.50
2018-07-08T02:04:10.059Z,17.50
2018-07-08T02:06:38.508Z,17.60
2018-07-08T02:09:06.983Z,17.60
2018-07-08T02:11:35.582Z,17.60
2018-07-08T02:14:03.913Z,17.70
2018-07-08T02:16:32.288Z,17.70
2018-07-08T02:19:00.597Z,17.70
2018-07-08T02:21:29.060Z,17.80
2018-07-08T02:23:57.478Z,17.80
2018-07-08T02:26:25.933Z,17.80
2018-07-08T02:28:54.394Z,17.80
2018-07-08T02:31:22.731Z,17.80
2018-07-08T02:33:51.405Z,17.80
2018-07-08T02:36:19.706Z,17.80
2018-07-08T02:38:48.030Z,17.80
2018-07-08T02:41:16.332Z,17.80
2018-07-08T02:43:44.637Z,17.80
2018-07-08T02:46:12.958Z,18.70
2018-07-08T02:48:41.319Z,17.80
2018-07-08T02:51:09.608Z,17.90
2018-07-08T02:53:38.008Z,17.90
2018-07-08T02:56:06.316Z,17.90
2018-07-08T02:58:34.638Z,17.90
2018-07-08T03:01:02.996Z,17.90
2018-07-08T03:03:31.387Z,17.90
2018-07-08T03:05:59.742Z,17.90
2018-07-08T03:08:28.423Z,18.00
2018-07-08T03:10:56.743Z,18.00
2018-07-08T03:13:25.092Z,18.00
2018-07-08T03:15:53.421Z,18.00
2018-07-08T03:18:21.715Z,18.00
2018-07-08T03:20:50.092Z,18.00
2018-07-08T03:23:18.385Z,18.00
2018-07-08T03:25:46.966Z,18.00
2018-07-08T03:28:15.320Z,18.00
2018-07-08T03:30:43.645Z,18.00
2018-07-08T03:33:11.953Z,18.00
2018-07-08T03:35:40.245Z,18.00
2018-07-08T03:38:08.568Z,18.00
2018-07-08T03:40:36.889Z,18.00
2018-07-08T03:45:33.384Z,18.00
2018-07-08T03:48:01.754Z,18.00
2018-07-08T03:50:30.134Z,18.00
2018-07-08T03:52:58.424Z,18.00
2018-07-08T03:55:26.783Z,18.00
2018-07-08T03:57:55.218Z,18.00
2018-07-08T04:00:23.494Z,18.00
2018-07-08T04:02:51.803Z,18.10
2018-07-08T04:05:20.117Z,18.10
2018-07-08T04:07:48.451Z,18.10
2018-07-08T04:10:16.758Z,18.10
2018-07-08T04:12:45.103Z,18.10
2018-07-08T04:15:13.423Z,18.10
2018-07-08T04:17:41.727Z,18.10
2018-07-08T04:20:10.044Z,18.10
2018-07-08T04:22:38.381Z,18.20
2018-07-08T04:25:06.706Z,18.20
2018-07-08T04:27:35.306Z,18.20
2018-07-08T04:30:03.638Z,18.20
2018-07-08T04:32:31.938Z,18.10
2018-07-08T04:35:00.252Z,18.20
2018-07-08T04:37:28.552Z,18.10
2018-07-08T04:39:56.893Z,18.20
2018-07-08T04:42:25.234Z,18.20
2018-07-08T04:44:53.556Z,18.20
2018-07-08T04:47:21.898Z,18.30
2018-07-08T04:49:50.218Z,18.30
2018-07-08T04:52:18.527Z,18.30
2018-07-08T04:54:46.797Z,18.30
2018-07-08T04:57:15.159Z,18.30
2018-07-08T04:59:43.483Z,18.40
2018-07-08T05:02:12.191Z,18.40
2018-07-08T05:04:40.490Z,18.40
2018-07-08T05:07:08.861Z,18.50
2018-07-08T05:09:37.219Z,18.50
2018-07-08T05:12:05.611Z,18.50
2018-07-08T05:14:33.955Z,18.50
2018-07-08T05:17:02.281Z,18.60
2018-07-08T05:19:30.594Z,18.60
2018-07-08T05:21:58.968Z,18.60
2018-07-08T05:24:27.625Z,18.70
2018-07-08T05:26:55.999Z,18.70
2018-07-08T05:29:24.290Z,18.70
2018-07-08T05:31:52.614Z,18.70
2018-07-08T05:34:20.938Z,18.70
2018-07-08T05:36:49.240Z,18.80
2018-07-08T05:39:17.505Z,18.90
2018-07-08T05:41:46.179Z,19.00
2018-07-08T05:44:15.187Z,19.10
2018-07-08T05:46:43.489Z,19.10
2018-07-08T05:49:11.832Z,19.10
2018-07-08T05:51:40.112Z,19.20
2018-07-08T05:54:08.480Z,19.30
2018-07-08T05:56:36.856Z,19.30
2018-07-08T05:59:05.201Z,19.40
2018-07-08T06:01:33.490Z,19.50
2018-07-08T06:06:30.058Z,19.70
2018-07-08T06:08:58.330Z,19.80
2018-07-08T06:11:26.650Z,19.70
2018-07-08T06:13:54.942Z,19.70
2018-07-08T06:16:24.393Z,19.60
2018-07-08T06:18:52.716Z,19.70
2018-07-08T06:21:21.025Z,19.60
2018-07-08T06:23:49.302Z,19.70
2018-07-08T06:26:17.594Z,19.70
2018-07-08T06:28:45.903Z,19.70
2018-07-08T06:31:15.154Z,19.70
2018-07-08T06:33:43.452Z,19.80
2018-07-08T06:36:11.733Z,19.90
2018-07-08T06:38:40.035Z,19.90
2018-07-08T06:41:08.343Z,19.80
2018-07-08T06:43:36.615Z,19.90
2018-07-08T06:46:04.957Z,19.90
2018-07-08T06:48:33.250Z,19.80
2018-07-08T06:51:01.557Z,19.80
2018-07-08T06:53:29.842Z,19.80
2018-07-08T06:55:58.480Z,19.90
2018-07-08T06:58:26.776Z,19.90
2018-07-08T07:00:55.074Z,19.90
2018-07-08T07:03:23.371Z,20.00
2018-07-08T07:05:51.670Z,20.00
2018-07-08T07:08:19.970Z,20.20
2018-07-08T07:10:48.294Z,20.30
2018-07-08T07:13:16.606Z,20.20
2018-07-08T07:15:44.917Z,20.30
2018-07-08T07:18:13.214Z,20.30
2018-07-08T07:20:41.487Z,20.30
2018-07-08T07:23:09.805Z,20.40
2018-07-08T07:25:38.047Z,20.60
2018-07-08T07:28:06.779Z,20.60
2018-07-08T07:30:35.119Z,20.50
2018-07-08T07:33:04.334Z,20.60
2018-07-08T07:35:32.630Z,20.70
2018-07-08T07:38:00.956Z,20.80
2018-07-08T07:40:29.666Z,20.90
2018-07-08T07:45:37.669Z,21.00
2018-07-08T07:48:06.351Z,21.00
2018-07-08T07:50:35.108Z,21.00
2018-07-08T07:53:03.456Z,21.00
2018-07-08T07:55:32.481Z,21.10
2018-07-08T07:58:00.868Z,21.10
2018-07-08T08:00:29.175Z,21.20
2018-07-08T08:02:57.546Z,21.30
2018-07-08T08:05:25.914Z,21.40
2018-07-08T08:07:54.254Z,21.50
2018-07-08T08:10:22.611Z,21.50
2018-07-08T08:12:51.149Z,21.60
2018-07-08T08:15:19.431Z,21.80
2018-07-08T08:17:47.765Z,22.00
2018-07-08T08:20:16.203Z,22.00
2018-07-08T08:22:44.524Z,22.00
2018-07-08T08:25:12.857Z,22.00
2018-07-08T08:27:41.212Z,22.00
2018-07-08T08:30:09.563Z,22.00
2018-07-08T08:32:37.940Z,22.20
2018-07-08T08:35:11.646Z,22.30
2018-07-08T08:40:09.804Z,22.60
2018-07-08T08:42:38.203Z,22.60
2018-07-08T08:45:07.969Z,22.60
2018-07-08T08:47:36.394Z,22.80
2018-07-08T08:50:05.346Z,22.90
2018-07-08T08:52:33.750Z,22.90
2018-07-08T08:55:02.018Z,23.00
2018-07-08T08:57:30.855Z,23.10
2018-07-08T08:59:59.343Z,23.10
2018-07-08T09:02:27.791Z,23.10
2018-07-08T09:04:56.404Z,23.10
2018-07-08T09:07:24.747Z,23.10
2018-07-08T09:09:53.055Z,23.10
2018-07-08T09:12:21.350Z,23.20
2018-07-08T09:14:49.667Z,23.40
2018-07-08T09:17:17.999Z,23.40
2018-07-08T09:19:46.336Z,23.40
2018-07-08T09:22:14.666Z,23.50
2018-07-08T09:24:42.992Z,23.50
2018-07-08T09:27:11.310Z,23.60
2018-07-08T09:29:39.678Z,23.70
2018-07-08T09:32:12.884Z,23.70
2018-07-08T09:34:41.201Z,23.80
2018-07-08T09:37:09.510Z,23.90
2018-07-08T09:39:37.870Z,24.10
2018-07-08T09:42:06.187Z,24.10
2018-07-08T09:44:34.535Z,24.20
2018-07-08T09:47:02.802Z,24.10
2018-07-08T09:49:31.638Z,24.20
2018-07-08T09:52:00.159Z,24.30
2018-07-08T09:54:28.466Z,24.40
2018-07-08T09:56:56.856Z,24.50
2018-07-08T09:59:27.271Z,24.60
2018-07-08T10:01:55.881Z,24.50
2018-07-08T10:04:25.067Z,24.50
2018-07-08T10:06:54.910Z,24.50
2018-07-08T10:09:32.001Z,24.70
2018-07-08T10:12:00.456Z,24.70
2018-07-08T10:14:28.910Z,24.90
2018-07-08T10:16:57.249Z,24.90
2018-07-08T10:19:25.721Z,25.00
2018-07-08T10:21:53.984Z,25.00
2018-07-08T10:24:22.372Z,25.10
2018-07-08T10:27:00.681Z,25.20
2018-07-08T10:29:29.423Z,25.20
2018-07-08T10:32:00.814Z,25.40
2018-07-08T10:34:29.540Z,25.50
2018-07-08T10:36:57.859Z,25.50
2018-07-08T10:39:26.399Z,25.50
2018-07-08T10:41:54.912Z,25.60
2018-07-08T10:44:23.303Z,25.70
2018-07-08T10:46:51.656Z,25.70
2018-07-08T10:51:48.158Z,25.80
2018-07-08T10:54:16.513Z,25.70
2018-07-08T10:56:44.906Z,25.60
2018-07-08T10:59:13.287Z,25.60
2018-07-08T11:01:41.703Z,25.70
2018-07-08T11:04:10.144Z,25.80
2018-07-08T11:06:38.540Z,25.90
2018-07-08T11:09:07.165Z,25.90
2018-07-08T11:11:35.663Z,26.00
2018-07-08T11:14:04.079Z,26.10
2018-07-08T11:16:32.486Z,26.20
2018-07-08T11:19:00.842Z,26.20
2018-07-08T11:21:29.343Z,26.10
2018-07-08T11:23:57.679Z,26.10
2018-07-08T11:26:27.702Z,26.00
2018-07-08T11:28:56.071Z,26.00
2018-07-08T11:31:24.439Z,26.00
2018-07-08T11:33:52.987Z,26.10
2018-07-08T11:36:21.386Z,26.20
2018-07-08T11:38:49.725Z,26.30
2018-07-08T11:41:18.710Z,26.40
2018-07-08T11:43:47.063Z,26.40
2018-07-08T11:46:17.411Z,26.20
2018-07-08T11:48:46.251Z,26.40
2018-07-08T11:51:14.858Z,26.30
2018-07-08T11:53:43.572Z,26.50
2018-07-08T11:56:19.576Z,26.50
2018-07-08T11:58:53.436Z,26.60
2018-07-08T12:01:30.886Z,26.70
2018-07-08T12:04:08.189Z,26.70
2018-07-08T12:12:44.611Z,26.70
2018-07-08T12:15:13.951Z,26.60
2018-07-08T12:17:42.331Z,26.70
2018-07-08T12:20:10.631Z,26.60
2018-07-08T12:22:39.006Z,27.00
2018-07-08T12:25:07.580Z,26.80
2018-07-08T12:27:36.347Z,26.70
2018-07-08T12:30:04.639Z,26.60
2018-07-08T12:32:33.075Z,26.80
2018-07-08T12:35:01.455Z,26.80
2018-07-08T12:37:29.763Z,26.90
2018-07-08T12:39:58.128Z,26.60
2018-07-08T12:42:26.419Z,26.80
2018-07-08T12:44:54.778Z,26.70
2018-07-08T12:47:23.103Z,26.80
2018-07-08T12:49:51.482Z,26.80
2018-07-08T12:52:19.998Z,26.70
2018-07-08T12:54:49.141Z,26.80
2018-07-08T12:57:17.561Z,27.00
2018-07-08T12:59:45.983Z,26.80
2018-07-08T13:02:14.394Z,26.80
2018-07-08T13:04:42.861Z,26.60
2018-07-08T13:07:11.309Z,26.80
2018-07-08T13:09:41.057Z,27.10
2018-07-08T13:12:09.456Z,26.90
2018-07-08T13:14:38.150Z,26.90
2018-07-08T13:17:06.554Z,26.70
2018-07-08T13:19:36.666Z,26.90
2018-07-08T13:22:05.133Z,27.20
2018-07-08T13:24:33.521Z,27.30
2018-07-08T13:27:02.176Z,27.00
2018-07-08T13:29:30.522Z,26.80
2018-07-08T13:31:58.924Z,26.90
2018-07-08T13:34:27.371Z,27.20
2018-07-08T13:36:55.749Z,27.30
2018-07-08T13:39:55.389Z,27.40
2018-07-08T13:42:23.915Z,27.30
2018-07-08T13:44:52.388Z,27.20
2018-07-08T13:47:20.860Z,26.90
2018-07-08T13:49:49.488Z,27.00
2018-07-08T13:52:18.028Z,27.30
2018-07-08T13:54:57.545Z,27.50
2018-07-08T13:57:26.151Z,27.70
2018-07-08T13:59:55.286Z,27.50
2018-07-08T14:02:23.750Z,27.30
2018-07-08T14:07:20.458Z,27.60
2018-07-08T14:09:55.290Z,27.00
2018-07-08T14:12:23.707Z,26.90
2018-07-08T14:14:52.274Z,27.20
2018-07-08T14:17:20.699Z,27.40
2018-07-08T14:19:49.216Z,27.60
2018-07-08T14:22:17.923Z,27.50
2018-07-08T14:25:02.101Z,27.80
2018-07-08T14:27:30.727Z,27.80
2018-07-08T14:29:59.239Z,28.10
2018-07-08T14:32:27.860Z,28.10
2018-07-08T14:34:56.531Z,27.80
2018-07-08T14:37:26.846Z,27.80
2018-07-08T14:40:03.704Z,28.00
2018-07-08T14:42:33.020Z,27.90
2018-07-08T14:45:01.576Z,27.80
2018-07-08T14:47:30.099Z,28.10
2018-07-08T14:49:58.993Z,28.10
2018-07-08T15:49:54.865Z,32.70
2018-07-08T15:52:23.335Z,32.60
2018-07-08T15:54:51.786Z,32.80
2018-07-08T15:57:20.175Z,33.00
2018-07-08T15:59:48.591Z,33.00
2018-07-08T16:02:17.084Z,33.20
2018-07-08T16:04:45.551Z,33.40
2018-07-08T16:07:14.199Z,33.90
2018-07-08T16:09:42.663Z,34.20
2018-07-08T16:12:10.963Z,34.40
2018-07-08T16:14:39.306Z,34.70
2018-07-08T16:17:07.613Z,34.70
2018-07-08T16:19:35.952Z,35.00
2018-07-08T16:22:06.983Z,35.20
2018-07-08T16:24:35.677Z,35.30
2018-07-08T16:27:04.252Z,35.40
2018-07-08T16:29:32.658Z,35.50
2018-07-08T16:32:01.038Z,35.50
2018-07-08T16:34:29.381Z,35.50
2018-07-08T16:36:57.781Z,35.60
2018-07-08T16:39:26.194Z,35.60
2018-07-08T16:44:22.685Z,35.60
2018-07-08T16:46:51.025Z,35.60
2018-07-08T16:49:19.369Z,35.50
2018-07-08T16:51:47.695Z,35.50
2018-07-08T16:54:17.031Z,35.40
2018-07-08T16:56:45.444Z,35.30
2018-07-08T16:59:13.791Z,35.20
2018-07-08T17:01:42.154Z,35.30
2018-07-08T17:04:10.650Z,35.40
2018-07-08T17:06:39.157Z,35.40
2018-07-08T17:09:08.687Z,35.50
2018-07-08T17:14:05.314Z,35.40
2018-07-08T17:16:34.012Z,35.40
2018-07-08T17:19:02.344Z,35.50
2018-07-08T17:21:30.670Z,35.50
2018-07-08T17:23:59.030Z,35.20
2018-07-08T17:26:27.391Z,35.10
2018-07-08T17:28:55.735Z,34.90
2018-07-08T17:31:24.427Z,34.70
2018-07-08T17:33:52.807Z,34.60
2018-07-08T17:36:21.182Z,34.10
2018-07-08T17:38:49.569Z,33.00
2018-07-08T17:41:17.896Z,31.90
2018-07-08T17:46:14.331Z,30.10
2018-07-08T17:48:42.678Z,29.50
2018-07-08T17:51:11.033Z,28.90
2018-07-08T17:53:39.377Z,27.70
2018-07-08T17:56:07.747Z,26.80
2018-07-08T17:58:36.251Z,26.10
2018-07-08T18:01:04.617Z,25.80
2018-07-08T18:03:33.085Z,25.40
2018-07-08T18:06:01.652Z,25.40
2018-07-08T18:08:30.143Z,25.20
2018-07-08T18:10:58.508Z,25.10
2018-07-08T18:13:27.646Z,24.70
2018-07-08T18:20:52.487Z,24.20
2018-07-08T18:25:49.550Z,24.10
2018-07-08T18:28:18.094Z,24.10
2018-07-08T18:30:46.431Z,24.10
2018-07-08T18:33:14.798Z,23.80
2018-07-08T18:35:43.137Z,23.80
2018-07-08T18:38:11.546Z,23.90
2018-07-08T18:40:39.878Z,23.70
2018-07-08T18:43:10.685Z,23.90
2018-07-08T18:45:39.131Z,23.70
2018-07-08T18:48:07.544Z,23.80
2018-07-08T18:50:35.897Z,23.80
2018-07-08T18:53:04.302Z,23.60
2018-07-08T18:55:32.787Z,23.50
2018-07-08T18:58:01.786Z,23.40
2018-07-08T19:00:30.056Z,22.90
2018-07-08T19:02:58.474Z,22.70
2018-07-08T19:05:26.886Z,22.50
2018-07-08T19:07:55.268Z,22.40
2018-07-08T19:10:23.700Z,22.30
2018-07-08T19:12:52.112Z,22.20
2018-07-08T19:15:20.469Z,22.20
2018-07-08T19:17:49.049Z,22.10
2018-07-08T19:22:45.674Z,21.90
2018-07-08T19:25:14.271Z,21.90
2018-07-08T19:27:43.026Z,21.80
2018-07-08T19:30:11.521Z,21.70
2018-07-08T19:32:40.161Z,21.70
2018-07-08T19:35:09.062Z,21.60
2018-07-08T19:37:37.548Z,21.60
2018-07-08T19:40:06.243Z,21.40
2018-07-08T19:42:34.693Z,21.30
2018-07-08T19:45:04.109Z,21.20
2018-07-08T19:47:32.562Z,21.20
2018-07-08T19:50:00.833Z,21.00
2018-07-08T19:52:29.166Z,21.00
2018-07-08T19:57:26.292Z,21.10
2018-07-08T19:59:54.611Z,21.00
2018-07-08T20:02:22.976Z,20.90
2018-07-08T20:04:52.767Z,20.80
2018-07-08T20:07:21.202Z,20.60
2018-07-08T20:09:49.538Z,20.60
2018-07-08T20:12:19.031Z,20.50
2018-07-08T20:14:47.514Z,20.40
2018-07-08T20:17:20.437Z,20.50
2018-07-08T20:19:48.799Z,20.40
2018-07-08T20:22:17.164Z,20.40
2018-07-08T20:24:46.651Z,20.30
2018-07-08T20:27:16.790Z,20.30
2018-07-08T20:29:45.490Z,20.40
2018-07-08T20:32:14.974Z,20.60
2018-07-08T20:34:43.302Z,20.70
2018-07-08T20:37:11.773Z,20.80
2018-07-08T20:39:40.147Z,20.70
2018-07-08T20:42:08.596Z,20.80
2018-07-08T20:44:37.108Z,20.90
2018-07-08T20:47:05.918Z,20.90
2018-07-08T20:49:34.603Z,20.50
2018-07-08T20:52:03.016Z,20.20
2018-07-08T20:54:31.902Z,20.00
2018-07-08T20:57:00.806Z,20.00
2018-07-08T20:59:29.150Z,20.00
2018-07-08T21:01:57.606Z,20.00
2018-07-08T21:04:25.969Z,20.00
2018-07-08T21:06:54.384Z,20.00
2018-07-08T21:09:22.760Z,20.10
2018-07-08T21:11:51.310Z,20.10
2018-07-08T21:14:19.711Z,20.10
2018-07-08T21:16:48.058Z,19.90
2018-07-08T21:19:16.434Z,19.80
2018-07-08T21:21:44.820Z,19.90
2018-07-08T21:24:13.291Z,20.00
2018-07-08T21:26:41.679Z,20.10
2018-07-08T21:29:10.028Z,20.00
2018-07-08T21:31:38.759Z,19.90
2018-07-08T21:34:07.183Z,19.70
2018-07-08T21:36:35.574Z,19.80
2018-07-08T21:39:05.567Z,19.90
2018-07-08T21:41:33.958Z,20.00
2018-07-08T21:44:02.407Z,20.00
2018-07-08T21:46:30.806Z,20.00
2018-07-08T21:48:59.217Z,20.10
2018-07-08T21:51:27.595Z,20.10
2018-07-08T21:53:56.109Z,20.10
2018-07-08T21:56:24.566Z,20.20
2018-07-08T21:58:52.984Z,20.10
2018-07-08T22:01:22.636Z,20.20
2018-07-08T22:03:51.728Z,20.20
2018-07-08T22:06:20.752Z,20.20
2018-07-08T22:08:49.164Z,20.10
2018-07-08T22:11:17.588Z,20.20
2018-07-08T22:13:45.946Z,20.10
2018-07-08T22:16:14.347Z,20.10
2018-07-08T22:18:42.822Z,20.00
2018-07-08T22:21:11.263Z,20.00
2018-07-08T22:23:39.675Z,20.00
2018-07-08T22:26:08.062Z,20.00
2018-07-08T22:28:36.440Z,19.90
2018-07-08T22:31:05.395Z,20.00
2018-07-08T22:33:33.710Z,19.90
2018-07-08T22:36:02.094Z,20.00
2018-07-08T22:38:30.418Z,20.00
2018-07-08T22:40:58.886Z,19.90
2018-07-08T22:43:27.276Z,19.90
2018-07-08T22:45:55.737Z,19.60
2018-07-08T22:48:24.099Z,19.70
2018-07-08T22:50:52.458Z,19.80
2018-07-08T22:53:20.856Z,19.80
2018-07-08T22:55:49.217Z,19.70
2018-07-08T22:58:17.592Z,19.50
2018-07-08T23:00:57.335Z,19.40
2018-07-08T23:03:52.524Z,19.20
2018-07-08T23:06:20.963Z,19.10
2018-07-08T23:08:50.128Z,19.00
2018-07-08T23:11:18.999Z,19.00
2018-07-08T23:16:16.901Z,18.90
2018-07-08T23:18:45.383Z,19.00
2018-07-08T23:21:13.855Z,19.10
2018-07-08T23:23:42.700Z,19.10
2018-07-08T23:26:11.107Z,19.20
2018-07-08T23:28:41.289Z,18.90
2018-07-08T23:31:10.138Z,18.90
2018-07-08T23:33:38.542Z,19.00
2018-07-08T23:36:07.661Z,19.00
2018-07-08T23:38:36.103Z,19.00
2018-07-08T23:41:05.469Z,19.00
2018-07-08T23:43:33.872Z,18.90
2018-07-08T23:46:02.980Z,18.80
2018-07-08T23:48:31.793Z,18.80
2018-07-08T23:51:00.153Z,18.80
2018-07-08T23:53:28.627Z,18.90
2018-07-08T23:55:56.970Z,18.80
